createdAt,value
2019-05-25T00:02:20.412Z,12.20
2019-05-25T00:05:08.388Z,12.20
2019-05-25T00:07:36.882Z,12.30
2019-05-25T00:10:07.243Z,12.20
2019-05-25T00:12:35.697Z,12.10
2019-05-25T00:15:06.948Z,12.00
2019-05-25T00:17:35.404Z,11.90
2019-05-25T00:20:05.610Z,11.80
2019-05-25T00:22:34.108Z,11.60
2019-05-25T00:25:02.648Z,11.60
2019-05-25T00:27:31.103Z,11.60
2019-05-25T00:29:59.609Z,11.60
2019-05-25T00:32:28.084Z,11.60
2019-05-25T00:34:56.611Z,11.50
2019-05-25T00:37:25.137Z,11.50
2019-05-25T00:39:53.658Z,11.50
2019-05-25T00:42:22.130Z,11.50
2019-05-25T00:44:50.951Z,11.60
2019-05-25T00:47:19.431Z,11.60
2019-05-25T00:49:47.878Z,11.50
2019-05-25T00:52:16.376Z,11.40
2019-05-25T00:54:44.839Z,11.40
2019-05-25T00:57:13.302Z,11.40
2019-05-25T00:59:41.808Z,11.40
2019-05-25T01:02:10.269Z,11.40
2019-05-25T01:04:38.910Z,11.20
2019-05-25T01:07:07.430Z,11.00
2019-05-25T01:09:35.959Z,10.90
2019-05-25T01:12:04.837Z,10.80
2019-05-25T01:14:33.332Z,10.70
2019-05-25T01:17:01.801Z,10.70
2019-05-25T01:19:30.359Z,10.80
2019-05-25T01:21:58.865Z,10.60
2019-05-25T01:24:42.928Z,10.60
2019-05-25T01:26:57.531Z,10.70
2019-05-25T01:29:26.023Z,10.70
2019-05-25T01:31:54.487Z,10.70
2019-05-25T01:34:22.948Z,10.70
2019-05-25T01:36:51.502Z,10.70
2019-05-25T01:39:20.036Z,10.70
2019-05-25T01:41:48.495Z,10.80
2019-05-25T01:44:16.988Z,10.80
2019-05-25T01:46:45.466Z,10.70
2019-05-25T01:49:13.989Z,10.80
2019-05-25T01:51:42.511Z,10.80
2019-05-25T01:54:10.973Z,10.80
2019-05-25T01:56:39.437Z,10.70
2019-05-25T01:59:07.940Z,10.70
2019-05-25T02:01:36.487Z,10.70
2019-05-25T02:04:05.012Z,10.70
2019-05-25T02:06:33.513Z,10.60
2019-05-25T02:09:01.969Z,10.60
2019-05-25T02:11:30.510Z,10.60
2019-05-25T02:13:59.000Z,10.60
2019-05-25T02:16:27.537Z,10.60
2019-05-25T02:18:56.010Z,10.50
2019-05-25T02:21:24.519Z,10.50
2019-05-25T02:23:52.990Z,10.50
2019-05-25T02:26:21.461Z,10.40
2019-05-25T02:28:49.978Z,10.40
2019-05-25T02:31:18.450Z,10.30
2019-05-25T02:33:46.904Z,10.20
2019-05-25T02:36:15.874Z,10.10
2019-05-25T02:38:44.344Z,10.00
2019-05-25T02:41:12.821Z,10.00
2019-05-25T02:43:41.322Z,10.00
2019-05-25T02:46:11.029Z,10.00
2019-05-25T02:48:39.527Z,9.80
2019-05-25T02:51:08.039Z,9.90
2019-05-25T02:53:36.562Z,9.90
2019-05-25T02:56:05.183Z,9.90
2019-05-25T02:58:33.782Z,10.00
2019-05-25T03:01:02.478Z,10.00
2019-05-25T03:03:31.204Z,9.90
2019-05-25T03:06:01.051Z,10.00
2019-05-25T03:08:30.147Z,9.90
2019-05-25T03:11:00.447Z,10.00
2019-05-25T03:13:32.539Z,9.80
2019-05-25T03:16:01.534Z,9.70
2019-05-25T03:18:30.002Z,9.70
2019-05-25T03:20:58.565Z,9.60
2019-05-25T03:23:27.023Z,9.50
2019-05-25T03:25:55.472Z,9.60
2019-05-25T03:28:23.977Z,9.50
2019-05-25T03:30:52.434Z,9.50
2019-05-25T03:33:20.893Z,9.60
2019-05-25T03:35:49.749Z,9.60
2019-05-25T03:38:18.255Z,9.50
2019-05-25T03:40:46.724Z,9.50
2019-05-25T03:43:15.224Z,9.50
2019-05-25T03:45:43.692Z,9.40
2019-05-25T03:48:12.160Z,9.40
2019-05-25T03:50:40.742Z,9.40
2019-05-25T03:53:09.287Z,9.50
2019-05-25T03:55:37.819Z,9.40
2019-05-25T03:58:06.401Z,9.40
2019-05-25T04:00:36.956Z,9.50
2019-05-25T04:03:06.872Z,9.50
2019-05-25T04:05:35.500Z,9.50
2019-05-25T04:08:04.203Z,9.60
2019-05-25T04:10:32.731Z,9.50
2019-05-25T04:13:01.247Z,9.60
2019-05-25T04:15:29.700Z,9.60
2019-05-25T04:17:58.177Z,9.60
2019-05-25T04:20:26.720Z,9.50
2019-05-25T04:22:55.249Z,9.60
2019-05-25T04:25:23.702Z,9.60
2019-05-25T04:27:52.205Z,9.70
2019-05-25T04:30:21.123Z,9.70
2019-05-25T04:32:49.600Z,9.70
2019-05-25T04:35:18.625Z,9.80
2019-05-25T04:37:47.086Z,9.80
2019-05-25T04:40:15.801Z,10.00
2019-05-25T04:42:44.295Z,10.00
2019-05-25T04:45:13.398Z,10.00
2019-05-25T04:47:41.932Z,10.20
2019-05-25T04:50:10.663Z,10.30
2019-05-25T04:52:41.364Z,10.40
2019-05-25T04:55:09.650Z,10.50
2019-05-25T04:57:38.152Z,10.60
2019-05-25T05:00:07.353Z,10.60
2019-05-25T05:02:35.973Z,10.70
2019-05-25T05:05:06.302Z,10.90
2019-05-25T05:07:34.768Z,10.90
2019-05-25T05:10:04.288Z,11.00
2019-05-25T05:12:34.338Z,11.00
2019-05-25T05:15:03.161Z,10.90
2019-05-25T05:17:31.650Z,10.90
2019-05-25T05:20:00.401Z,10.90
2019-05-25T05:22:28.868Z,10.90
2019-05-25T05:24:57.336Z,11.00
2019-05-25T05:27:25.823Z,11.20
2019-05-25T05:29:54.282Z,11.40
2019-05-25T05:32:27.636Z,11.60
2019-05-25T05:34:53.008Z,11.60
2019-05-25T05:37:23.904Z,11.80
2019-05-25T05:39:53.806Z,12.00
2019-05-25T05:42:24.364Z,12.30
2019-05-25T05:44:55.827Z,12.50
2019-05-25T05:47:25.897Z,12.60
2019-05-25T05:49:54.842Z,12.70
2019-05-25T05:52:25.098Z,12.70
2019-05-25T05:54:55.605Z,12.70
2019-05-25T05:57:24.101Z,12.80
2019-05-25T05:59:52.606Z,13.00
2019-05-25T06:02:21.149Z,13.00
2019-05-25T06:04:49.734Z,13.20
2019-05-25T06:07:18.202Z,13.50
2019-05-25T06:09:46.652Z,13.50
2019-05-25T06:12:15.625Z,13.30
2019-05-25T06:14:44.089Z,13.70
2019-05-25T06:17:12.571Z,13.60
2019-05-25T06:19:41.154Z,13.80
2019-05-25T06:22:09.611Z,14.10
2019-05-25T06:24:38.084Z,14.30
2019-05-25T06:27:06.584Z,14.40
2019-05-25T06:29:35.044Z,14.40
2019-05-25T06:32:03.577Z,14.20
2019-05-25T06:34:32.134Z,14.50
2019-05-25T06:37:00.601Z,14.40
2019-05-25T06:39:29.067Z,14.70
2019-05-25T06:41:57.582Z,14.40
2019-05-25T06:44:26.114Z,14.50
2019-05-25T06:46:54.587Z,14.60
2019-05-25T06:49:23.087Z,14.60
2019-05-25T06:51:51.538Z,14.80
2019-05-25T06:54:20.009Z,14.90
2019-05-25T06:56:48.513Z,14.90
2019-05-25T06:59:17.034Z,14.70
2019-05-25T07:01:45.665Z,14.80
2019-05-25T07:04:14.160Z,14.80
2019-05-25T07:06:42.621Z,15.10
2019-05-25T07:09:11.091Z,15.10
2019-05-25T07:11:39.689Z,14.90
2019-05-25T07:14:08.157Z,14.90
2019-05-25T07:16:36.617Z,15.00
2019-05-25T07:19:05.129Z,14.90
2019-05-25T07:21:33.664Z,14.80
2019-05-25T07:24:02.136Z,14.70
2019-05-25T07:26:30.775Z,14.80
2019-05-25T07:28:59.236Z,14.90
2019-05-25T07:31:27.778Z,14.70
2019-05-25T07:33:56.278Z,14.70
2019-05-25T07:36:24.750Z,14.90
2019-05-25T07:38:53.205Z,14.80
2019-05-25T07:41:21.772Z,14.60
2019-05-25T07:43:50.325Z,14.50
2019-05-25T07:46:18.784Z,14.80
2019-05-25T07:48:50.281Z,14.50
2019-05-25T07:51:17.503Z,14.20
2019-05-25T07:53:45.981Z,14.40
2019-05-25T07:56:14.554Z,14.50
2019-05-25T07:58:43.020Z,14.10
2019-05-25T08:01:11.551Z,14.20
2019-05-25T08:03:40.161Z,14.30
2019-05-25T08:06:08.693Z,14.20
2019-05-25T08:08:37.161Z,14.40
2019-05-25T08:11:05.716Z,14.40
2019-05-25T08:13:34.185Z,14.40
2019-05-25T08:16:02.643Z,14.50
2019-05-25T08:18:31.141Z,14.40
2019-05-25T08:20:59.686Z,14.30
2019-05-25T08:23:28.143Z,14.20
2019-05-25T08:25:56.651Z,14.30
2019-05-25T08:28:32.947Z,14.30
2019-05-25T08:30:55.317Z,14.40
2019-05-25T08:33:23.892Z,14.40
2019-05-25T08:35:52.424Z,14.60
2019-05-25T08:38:20.927Z,14.60
2019-05-25T08:40:49.461Z,14.60
2019-05-25T08:43:17.957Z,14.60
2019-05-25T08:45:46.408Z,14.60
2019-05-25T08:48:14.920Z,14.60
2019-05-25T08:50:43.386Z,14.50
2019-05-25T08:53:11.839Z,14.40
2019-05-25T08:55:40.415Z,14.40
2019-05-25T08:58:09.321Z,14.60
2019-05-25T09:00:37.787Z,14.60
2019-05-25T09:03:06.288Z,14.40
2019-05-25T09:05:34.754Z,14.30
2019-05-25T09:08:03.226Z,14.20
2019-05-25T09:10:31.810Z,14.20
2019-05-25T09:13:00.273Z,14.10
2019-05-25T09:15:28.733Z,14.00
2019-05-25T09:17:57.490Z,14.00
2019-05-25T09:20:26.081Z,14.10
2019-05-25T09:22:54.550Z,14.00
2019-05-25T09:25:23.235Z,14.10
2019-05-25T09:27:51.701Z,14.00
2019-05-25T09:30:21.780Z,14.00
2019-05-25T09:32:50.341Z,14.00
2019-05-25T09:35:19.016Z,14.20
2019-05-25T09:37:47.470Z,14.20
2019-05-25T09:40:16.209Z,14.40
2019-05-25T09:42:44.733Z,14.60
2019-05-25T09:45:14.270Z,14.60
2019-05-25T09:47:42.948Z,14.60
2019-05-25T09:50:12.555Z,14.60
2019-05-25T09:52:41.017Z,14.60
2019-05-25T09:55:10.165Z,14.70
2019-05-25T09:57:41.547Z,14.90
2019-05-25T10:00:10.916Z,15.20
2019-05-25T10:02:39.527Z,15.40
2019-05-25T10:05:09.484Z,15.40
2019-05-25T10:07:37.951Z,15.50
2019-05-25T10:10:07.890Z,15.60
2019-05-25T10:12:36.432Z,15.60
2019-05-25T10:15:08.285Z,15.50
2019-05-25T10:17:36.847Z,15.50
2019-05-25T10:20:06.959Z,15.50
2019-05-25T10:22:35.419Z,15.40
2019-05-25T10:25:06.437Z,15.40
2019-05-25T10:27:34.892Z,15.40
2019-05-25T10:30:03.633Z,15.40
2019-05-25T10:32:32.284Z,15.60
2019-05-25T10:35:00.736Z,15.40
2019-05-25T10:37:29.193Z,15.30
2019-05-25T10:39:57.673Z,15.50
2019-05-25T10:42:26.131Z,15.80
2019-05-25T10:44:54.596Z,15.80
2019-05-25T10:47:23.298Z,16.10
2019-05-25T10:49:51.760Z,16.50
2019-05-25T10:52:20.223Z,16.90
2019-05-25T10:54:48.736Z,17.40
2019-05-25T10:57:17.266Z,17.80
2019-05-25T10:59:52.782Z,17.80
2019-05-25T11:02:15.954Z,17.40
2019-05-25T11:04:44.426Z,16.70
2019-05-25T11:07:12.878Z,16.70
2019-05-25T11:09:41.377Z,17.10
2019-05-25T11:12:09.822Z,17.40
2019-05-25T11:14:38.276Z,17.90
2019-05-25T11:17:06.782Z,17.70
2019-05-25T11:19:35.245Z,18.00
2019-05-25T11:22:03.767Z,18.40
2019-05-25T11:24:32.266Z,18.60
2019-05-25T11:27:00.713Z,18.40
2019-05-25T11:29:29.185Z,18.30
2019-05-25T11:32:01.624Z,18.10
2019-05-25T11:34:27.946Z,17.90
2019-05-25T11:36:56.412Z,18.10
2019-05-25T11:39:24.923Z,18.60
2019-05-25T11:41:53.456Z,17.80
2019-05-25T11:44:21.927Z,18.00
2019-05-25T11:46:50.522Z,19.10
2019-05-25T11:49:22.585Z,19.50
2019-05-25T11:51:49.167Z,19.30
2019-05-25T11:54:17.745Z,19.20
2019-05-25T11:56:46.284Z,19.20
2019-05-25T11:59:14.738Z,19.00
2019-05-25T12:01:43.228Z,18.90
2019-05-25T12:04:11.684Z,19.00
2019-05-25T12:06:40.134Z,18.80
2019-05-25T12:09:08.801Z,18.70
2019-05-25T12:11:37.321Z,19.40
2019-05-25T12:14:05.931Z,20.00
2019-05-25T12:16:34.427Z,20.60
2019-05-25T12:19:02.887Z,20.90
2019-05-25T12:21:31.362Z,20.90
2019-05-25T12:23:59.997Z,21.00
2019-05-25T12:26:28.457Z,19.60
2019-05-25T12:28:56.906Z,19.60
2019-05-25T12:31:25.469Z,19.90
2019-05-25T12:33:53.941Z,19.40
2019-05-25T12:36:22.401Z,19.60
2019-05-25T12:38:50.905Z,19.30
2019-05-25T12:41:19.366Z,19.50
2019-05-25T12:43:47.881Z,19.70
2019-05-25T12:46:17.151Z,20.50
2019-05-25T12:48:45.600Z,20.60
2019-05-25T12:51:17.687Z,21.00
2019-05-25T12:53:45.639Z,20.70
2019-05-25T12:56:14.184Z,20.20
2019-05-25T12:58:42.783Z,19.60
2019-05-25T13:01:11.277Z,19.30
2019-05-25T13:03:39.721Z,19.20
2019-05-25T13:06:08.177Z,20.00
2019-05-25T13:08:36.682Z,20.50
2019-05-25T13:11:08.384Z,20.10
2019-05-25T13:13:35.450Z,19.30
2019-05-25T13:16:03.993Z,19.10
2019-05-25T13:18:32.498Z,19.60
2019-05-25T13:21:00.955Z,19.90
2019-05-25T13:23:29.441Z,20.10
2019-05-25T13:25:57.896Z,20.50
2019-05-25T13:28:26.363Z,20.30
2019-05-25T13:30:54.865Z,20.60
2019-05-25T13:33:23.404Z,20.60
2019-05-25T13:35:51.864Z,20.70
2019-05-25T13:38:20.364Z,20.30
2019-05-25T13:40:48.824Z,20.50
2019-05-25T13:43:17.293Z,20.70
2019-05-25T13:45:46.182Z,20.70
2019-05-25T13:48:14.807Z,20.60
2019-05-25T13:50:44.276Z,20.70
2019-05-25T13:53:12.824Z,20.60
2019-05-25T13:55:41.277Z,20.70
2019-05-25T13:58:09.735Z,20.30
2019-05-25T14:00:39.748Z,20.20
2019-05-25T14:03:08.276Z,20.50
2019-05-25T14:05:36.742Z,20.70
2019-05-25T14:08:05.241Z,20.50
2019-05-25T14:10:33.701Z,20.70
2019-05-25T14:13:02.153Z,20.30
2019-05-25T14:15:30.764Z,19.90
2019-05-25T14:17:59.619Z,20.00
2019-05-25T14:20:28.082Z,20.00
2019-05-25T14:22:56.571Z,20.10
2019-05-25T14:25:25.020Z,20.30
2019-05-25T14:27:53.480Z,20.30
2019-05-25T14:30:22.650Z,20.50
2019-05-25T14:32:51.108Z,20.10
2019-05-25T14:35:19.556Z,19.60
2019-05-25T14:37:48.045Z,19.70
2019-05-25T14:40:17.044Z,19.80
2019-05-25T14:42:45.505Z,20.20
2019-05-25T14:45:14.568Z,19.70
2019-05-25T14:47:43.817Z,20.00
2019-05-25T14:50:12.608Z,20.50
2019-05-25T14:52:43.195Z,20.50
2019-05-25T14:55:11.437Z,20.70
2019-05-25T14:57:40.151Z,20.70
2019-05-25T15:00:09.422Z,20.50
2019-05-25T15:02:37.944Z,20.50
2019-05-25T15:05:06.836Z,20.90
2019-05-25T15:07:35.356Z,20.70
2019-05-25T15:10:05.647Z,20.50
2019-05-25T15:12:34.356Z,20.10
2019-05-25T15:15:03.095Z,19.60
2019-05-25T15:17:31.581Z,19.70
2019-05-25T15:20:00.082Z,19.80
2019-05-25T15:22:28.639Z,19.70
2019-05-25T15:24:57.104Z,19.40
2019-05-25T15:27:25.568Z,19.40
2019-05-25T15:29:54.119Z,19.50
2019-05-25T15:32:22.584Z,19.40
2019-05-25T15:34:51.053Z,19.20
2019-05-25T15:37:19.615Z,19.20
2019-05-25T15:39:48.072Z,19.10
2019-05-25T15:42:16.558Z,19.40
2019-05-25T15:44:45.127Z,19.30
2019-05-25T15:47:13.586Z,19.20
2019-05-25T15:49:42.098Z,19.20
2019-05-25T15:52:10.581Z,19.10
2019-05-25T15:54:39.075Z,19.10
2019-05-25T15:57:07.777Z,19.10
2019-05-25T15:59:36.341Z,19.30
2019-05-25T16:02:05.601Z,19.50
2019-05-25T16:04:34.138Z,19.70
2019-05-25T16:07:02.827Z,19.50
2019-05-25T16:09:31.340Z,19.40
2019-05-25T16:12:00.269Z,19.10
2019-05-25T16:14:28.746Z,19.00
2019-05-25T16:16:57.211Z,19.30
2019-05-25T16:19:25.660Z,19.70
2019-05-25T16:21:54.156Z,19.70
2019-05-25T16:24:22.612Z,20.40
2019-05-25T16:26:51.070Z,20.30
2019-05-25T16:29:19.546Z,20.00
2019-05-25T16:31:48.010Z,19.60
2019-05-25T16:34:16.461Z,20.10
2019-05-25T16:36:44.958Z,21.30
2019-05-25T16:39:13.492Z,20.90
2019-05-25T16:41:42.016Z,20.00
2019-05-25T16:44:10.523Z,19.60
2019-05-25T16:46:38.976Z,19.30
2019-05-25T16:49:07.432Z,19.20
2019-05-25T16:51:35.925Z,19.10
2019-05-25T16:54:04.638Z,19.00
2019-05-25T16:56:33.080Z,19.00
2019-05-25T16:59:01.582Z,19.20
2019-05-25T17:01:46.891Z,19.50
2019-05-25T17:04:00.201Z,19.40
2019-05-25T17:06:28.689Z,19.40
2019-05-25T17:08:57.143Z,19.50
2019-05-25T17:11:25.592Z,19.40
2019-05-25T17:13:54.143Z,19.30
2019-05-25T17:16:22.903Z,19.30
2019-05-25T17:18:51.354Z,19.10
2019-05-25T17:21:19.844Z,19.20
2019-05-25T17:23:48.370Z,19.10
2019-05-25T17:26:16.833Z,19.00
2019-05-25T17:28:45.326Z,19.00
2019-05-25T17:31:13.782Z,19.00
2019-05-25T17:33:46.359Z,18.90
2019-05-25T17:36:13.244Z,18.90
2019-05-25T17:38:41.994Z,18.80
2019-05-25T17:41:10.447Z,18.70
2019-05-25T17:43:38.934Z,18.70
2019-05-25T17:46:07.400Z,18.70
2019-05-25T17:48:35.916Z,18.50
2019-05-25T17:51:04.483Z,18.40
2019-05-25T17:53:33.013Z,18.50
2019-05-25T17:56:01.458Z,18.50
2019-05-25T17:58:29.964Z,18.50
2019-05-25T18:00:58.479Z,18.40
2019-05-25T18:03:26.947Z,18.40
2019-05-25T18:05:55.445Z,18.30
2019-05-25T18:08:23.977Z,18.30
2019-05-25T18:10:54.348Z,18.30
2019-05-25T18:13:22.718Z,18.30
2019-05-25T18:15:51.190Z,18.30
2019-05-25T18:18:19.726Z,18.30
2019-05-25T18:20:48.394Z,18.30
2019-05-25T18:23:17.015Z,18.30
2019-05-25T18:25:45.537Z,18.30
2019-05-25T18:28:14.029Z,18.40
2019-05-25T18:30:42.536Z,18.30
2019-05-25T18:33:11.136Z,18.30
2019-05-25T18:35:39.627Z,18.40
2019-05-25T18:38:08.085Z,18.40
2019-05-25T18:40:36.541Z,18.40
2019-05-25T18:43:05.128Z,18.40
2019-05-25T18:45:33.830Z,18.40
2019-05-25T18:48:02.382Z,18.60
2019-05-25T18:50:30.868Z,18.50
2019-05-25T18:52:59.330Z,18.60
2019-05-25T18:55:27.790Z,18.50
2019-05-25T18:57:56.279Z,18.50
2019-05-25T19:00:25.171Z,18.40
2019-05-25T19:02:53.690Z,18.40
2019-05-25T19:05:22.426Z,18.20
2019-05-25T19:07:50.891Z,18.10
2019-05-25T19:10:19.693Z,18.10
2019-05-25T19:12:48.202Z,18.00
2019-05-25T19:15:18.424Z,17.90
2019-05-25T19:17:46.995Z,17.90
2019-05-25T19:20:20.641Z,17.80
2019-05-25T19:22:46.308Z,17.80
2019-05-25T19:25:14.841Z,17.80
2019-05-25T19:27:43.331Z,17.70
2019-05-25T19:30:12.430Z,17.70
2019-05-25T19:32:40.897Z,17.70
2019-05-25T19:35:11.525Z,17.60
2019-05-25T19:37:42.387Z,17.50
2019-05-25T19:40:10.913Z,17.50
2019-05-25T19:42:39.631Z,17.40
2019-05-25T19:45:09.942Z,17.40
2019-05-25T19:47:38.449Z,17.30
2019-05-25T19:50:08.286Z,17.20
2019-05-25T19:52:37.223Z,17.20
2019-05-25T19:55:07.207Z,17.00
2019-05-25T19:57:35.794Z,17.00
2019-05-25T20:00:07.014Z,16.90
2019-05-25T20:02:35.482Z,16.90
2019-05-25T20:05:15.933Z,16.80
2019-05-25T20:07:36.637Z,16.70
2019-05-25T20:10:08.808Z,16.60
2019-05-25T20:12:37.457Z,16.60
2019-05-25T20:15:08.046Z,16.50
2019-05-25T20:17:36.735Z,16.40
2019-05-25T20:20:06.060Z,16.40
2019-05-25T20:22:34.605Z,16.30
2019-05-25T20:25:04.110Z,16.20
2019-05-25T20:27:32.685Z,16.20
2019-05-25T20:30:01.152Z,16.10
2019-05-25T20:32:29.691Z,16.10
2019-05-25T20:34:58.200Z,16.10
2019-05-25T20:37:26.673Z,16.00
2019-05-25T20:39:55.122Z,16.00
2019-05-25T20:42:23.625Z,15.90
2019-05-25T20:44:52.089Z,15.80
2019-05-25T20:47:20.835Z,15.70
2019-05-25T20:49:49.409Z,15.60
2019-05-25T20:52:17.872Z,15.60
2019-05-25T20:54:46.335Z,15.60
2019-05-25T20:57:14.840Z,15.50
2019-05-25T20:59:43.296Z,15.60
2019-05-25T21:02:11.757Z,15.50
2019-05-25T21:04:40.262Z,15.40
2019-05-25T21:07:08.731Z,15.30
2019-05-25T21:09:37.195Z,15.30
2019-05-25T21:12:05.939Z,15.30
2019-05-25T21:14:34.502Z,15.20
2019-05-25T21:17:03.002Z,15.20
2019-05-25T21:19:31.532Z,15.10
2019-05-25T21:22:00.027Z,15.10
2019-05-25T21:24:28.567Z,15.10
2019-05-25T21:26:57.127Z,15.00
2019-05-25T21:29:25.588Z,15.00
2019-05-25T21:31:54.062Z,14.90
2019-05-25T21:34:22.562Z,15.00
2019-05-25T21:36:51.013Z,14.90
2019-05-25T21:39:19.476Z,14.80
2019-05-25T21:41:47.968Z,14.80
2019-05-25T21:44:16.448Z,14.80
2019-05-25T21:46:44.992Z,14.80
2019-05-25T21:49:13.535Z,14.70
2019-05-25T21:51:42.002Z,14.70
2019-05-25T21:54:10.465Z,14.70
2019-05-25T21:56:39.057Z,14.60
2019-05-25T21:59:07.594Z,14.60
2019-05-25T22:01:36.055Z,14.60
2019-05-25T22:04:04.635Z,14.50
2019-05-25T22:06:33.180Z,14.50
2019-05-25T22:09:01.645Z,14.40
2019-05-25T22:11:30.217Z,14.30
2019-05-25T22:13:58.683Z,14.20
2019-05-25T22:16:27.138Z,14.10
2019-05-25T22:18:55.658Z,14.10
2019-05-25T22:21:24.128Z,13.90
2019-05-25T22:23:52.590Z,13.80
2019-05-25T22:26:21.078Z,13.70
2019-05-25T22:28:49.534Z,13.80
2019-05-25T22:31:18.003Z,13.80
2019-05-25T22:33:46.509Z,13.70
2019-05-25T22:36:14.963Z,13.60
2019-05-25T22:38:43.448Z,13.60
2019-05-25T22:41:12.009Z,13.50
2019-05-25T22:43:40.492Z,13.50
2019-05-25T22:46:08.959Z,13.50
2019-05-25T22:48:37.462Z,13.40
2019-05-25T22:51:05.920Z,13.30
2019-05-25T22:53:34.394Z,13.20
2019-05-25T22:56:02.882Z,13.10
2019-05-25T22:58:31.427Z,13.10
2019-05-25T23:00:59.908Z,13.00
2019-05-25T23:03:28.399Z,12.90
2019-05-25T23:05:56.867Z,12.90
2019-05-25T23:08:25.324Z,12.80
2019-05-25T23:10:53.831Z,12.80
2019-05-25T23:13:22.291Z,12.90
2019-05-25T23:15:50.778Z,12.80
2019-05-25T23:18:19.351Z,12.80
2019-05-25T23:20:47.814Z,12.80
2019-05-25T23:23:16.271Z,12.80
2019-05-25T23:25:44.771Z,12.80
2019-05-25T23:28:13.225Z,12.70
2019-05-25T23:30:41.683Z,12.60
2019-05-25T23:33:10.184Z,12.70
2019-05-25T23:35:38.655Z,12.70
2019-05-25T23:38:07.190Z,12.70
2019-05-25T23:40:35.689Z,12.60
2019-05-25T23:43:04.160Z,12.60
2019-05-25T23:45:32.619Z,12.60
2019-05-25T23:48:01.110Z,12.50
2019-05-25T23:50:29.566Z,12.40
2019-05-25T23:52:58.035Z,12.40
2019-05-25T23:55:26.539Z,12.30
2019-05-25T23:57:55.005Z,12.30
